createdAt,value
2019-03-27T00:00:21.892Z,11.94
2019-03-27T00:02:51.270Z,11.94
2019-03-27T00:05:21.111Z,11.92
2019-03-27T00:07:50.483Z,11.94
2019-03-27T00:10:19.881Z,11.94
2019-03-27T00:12:49.536Z,11.94
2019-03-27T00:15:18.904Z,11.93
2019-03-27T00:17:48.285Z,11.92
2019-03-27T00:20:17.793Z,11.89
2019-03-27T00:22:47.175Z,11.87
2019-03-27T00:25:16.559Z,11.84
2019-03-27T00:27:45.940Z,11.85
2019-03-27T00:30:16.713Z,11.82
2019-03-27T00:32:46.098Z,11.82
2019-03-27T00:35:15.474Z,11.78
2019-03-27T00:37:44.865Z,11.77
2019-03-27T00:40:14.603Z,11.76
2019-03-27T00:42:43.985Z,11.75
2019-03-27T00:45:25.933Z,11.76
2019-03-27T00:47:45.275Z,11.77
2019-03-27T00:50:14.794Z,11.79
2019-03-27T00:52:44.155Z,11.78
2019-03-27T00:55:14.091Z,11.79
2019-03-27T00:57:43.469Z,11.77
2019-03-27T01:00:28.888Z,11.75
2019-03-27T01:02:58.275Z,11.70
2019-03-27T01:05:27.680Z,11.68
2019-03-27T01:07:57.055Z,11.69
2019-03-27T01:10:26.426Z,11.67
2019-03-27T01:12:55.837Z,11.64
2019-03-27T01:15:34.343Z,11.65
2019-03-27T01:17:57.618Z,11.63
2019-03-27T01:20:26.984Z,11.64
2019-03-27T01:22:56.380Z,11.62
2019-03-27T01:25:25.749Z,11.62
2019-03-27T01:27:55.378Z,11.60
2019-03-27T01:30:25.034Z,11.57
2019-03-27T01:32:54.424Z,11.56
2019-03-27T01:35:23.786Z,11.54
2019-03-27T01:37:53.171Z,11.50
2019-03-27T01:40:22.539Z,11.48
2019-03-27T01:42:51.917Z,11.44
2019-03-27T01:45:21.295Z,11.41
2019-03-27T01:47:50.682Z,11.40
2019-03-27T01:50:20.060Z,11.39
2019-03-27T01:52:49.509Z,11.36
2019-03-27T01:55:18.890Z,11.35
2019-03-27T01:57:48.288Z,11.33
2019-03-27T02:00:18.457Z,11.32
2019-03-27T02:02:47.837Z,11.31
2019-03-27T02:05:17.210Z,11.29
2019-03-27T02:07:47.228Z,11.25
2019-03-27T02:10:17.867Z,11.21
2019-03-27T02:12:47.410Z,11.16
2019-03-27T02:15:17.444Z,11.12
2019-03-27T02:17:47.434Z,11.08
2019-03-27T02:20:17.675Z,11.01
2019-03-27T02:22:47.478Z,10.96
2019-03-27T02:25:17.445Z,10.90
2019-03-27T02:27:47.604Z,10.84
2019-03-27T02:30:17.118Z,10.80
2019-03-27T02:32:46.795Z,10.74
2019-03-27T02:35:16.177Z,10.69
2019-03-27T02:37:45.981Z,10.64
2019-03-27T02:40:15.771Z,10.60
2019-03-27T02:42:45.132Z,10.58
2019-03-27T02:45:14.546Z,10.55
2019-03-27T02:47:43.924Z,10.54
2019-03-27T02:50:13.692Z,10.52
2019-03-27T02:52:43.064Z,10.48
2019-03-27T02:55:12.701Z,10.48
2019-03-27T02:57:42.043Z,10.47
2019-03-27T03:00:13.527Z,10.48
2019-03-27T03:02:43.012Z,10.48
2019-03-27T03:05:12.767Z,10.48
2019-03-27T03:07:42.175Z,10.48
2019-03-27T03:10:12.944Z,10.48
2019-03-27T03:12:42.322Z,10.47
2019-03-27T03:15:12.507Z,10.47
2019-03-27T03:17:41.886Z,10.48
2019-03-27T03:20:11.416Z,10.47
2019-03-27T03:22:40.807Z,10.46
2019-03-27T03:25:11.479Z,10.47
2019-03-27T03:27:40.839Z,10.48
2019-03-27T03:30:12.747Z,10.47
2019-03-27T03:32:42.109Z,10.46
2019-03-27T03:35:12.157Z,10.42
2019-03-27T03:37:41.497Z,10.41
2019-03-27T03:40:13.388Z,10.36
2019-03-27T03:42:42.902Z,10.31
2019-03-27T03:45:12.593Z,10.26
2019-03-27T03:47:42.316Z,10.20
2019-03-27T03:50:33.010Z,10.16
2019-03-27T03:53:02.652Z,10.09
2019-03-27T03:55:35.930Z,10.05
2019-03-27T03:58:06.433Z,9.99
2019-03-27T04:00:36.350Z,9.95
2019-03-27T04:03:06.798Z,9.92
2019-03-27T04:05:36.178Z,9.87
2019-03-27T04:08:05.888Z,9.84
2019-03-27T04:10:35.266Z,9.82
2019-03-27T04:13:04.702Z,9.77
2019-03-27T04:15:34.083Z,9.74
2019-03-27T04:18:03.444Z,9.69
2019-03-27T04:20:32.834Z,9.67
2019-03-27T04:23:02.194Z,9.63
2019-03-27T04:25:53.866Z,9.60
2019-03-27T04:28:02.670Z,9.55
2019-03-27T04:30:32.071Z,9.54
2019-03-27T04:33:01.431Z,9.49
2019-03-27T04:35:31.158Z,9.44
2019-03-27T04:38:00.536Z,9.38
2019-03-27T04:40:29.904Z,9.35
2019-03-27T04:42:59.295Z,9.30
2019-03-27T04:45:28.746Z,9.27
2019-03-27T04:47:58.109Z,9.23
2019-03-27T04:50:27.490Z,9.20
2019-03-27T04:52:56.871Z,9.18
2019-03-27T04:55:26.475Z,9.15
2019-03-27T04:57:55.855Z,9.13
2019-03-27T05:00:25.222Z,9.09
2019-03-27T05:02:54.608Z,9.07
2019-03-27T05:05:23.979Z,9.07
2019-03-27T05:07:53.367Z,9.05
2019-03-27T05:10:22.728Z,9.04
2019-03-27T05:12:52.189Z,9.03
2019-03-27T05:15:21.559Z,9.03
2019-03-27T05:17:50.933Z,9.05
2019-03-27T05:20:20.312Z,9.06
2019-03-27T05:22:49.692Z,9.07
2019-03-27T05:25:19.386Z,9.10
2019-03-27T05:27:48.761Z,9.06
2019-03-27T05:30:27.413Z,9.08
2019-03-27T05:32:57.503Z,9.09
2019-03-27T05:35:28.251Z,9.11
2019-03-27T05:37:57.627Z,9.11
2019-03-27T05:40:26.996Z,9.13
2019-03-27T05:43:00.904Z,9.14
2019-03-27T05:45:27.809Z,9.19
2019-03-27T05:47:59.833Z,9.26
2019-03-27T05:50:28.277Z,9.36
2019-03-27T05:52:57.967Z,9.43
2019-03-27T05:55:27.338Z,9.56
2019-03-27T05:57:56.989Z,9.69
2019-03-27T06:00:27.502Z,9.86
2019-03-27T06:02:57.493Z,10.08
2019-03-27T06:05:27.842Z,10.35
2019-03-27T06:07:57.489Z,10.65
2019-03-27T06:10:26.860Z,10.96
2019-03-27T06:12:56.229Z,11.29
2019-03-27T06:15:25.624Z,11.60
2019-03-27T06:17:54.995Z,11.82
2019-03-27T06:20:24.397Z,12.01
2019-03-27T06:22:53.798Z,12.11
2019-03-27T06:25:23.148Z,12.16
2019-03-27T06:27:53.279Z,12.19
2019-03-27T06:30:22.666Z,12.21
2019-03-27T06:32:52.047Z,12.22
2019-03-27T06:35:21.669Z,12.20
2019-03-27T06:37:51.039Z,12.18
2019-03-27T06:40:20.436Z,12.16
2019-03-27T06:47:03.340Z,12.09
2019-03-27T06:53:29.208Z,11.94
2019-03-27T07:00:46.780Z,11.66
2019-03-27T07:09:30.610Z,11.30
2019-03-27T07:19:15.348Z,11.23
2019-03-27T07:31:41.412Z,11.52
2019-03-27T07:34:59.013Z,11.64
2019-03-27T07:37:51.812Z,11.75
2019-03-27T07:40:51.814Z,11.83
2019-03-27T07:47:04.236Z,11.94
2019-03-27T07:50:15.015Z,12.01
2019-03-27T07:53:14.020Z,12.07
2019-03-27T07:56:21.346Z,12.16
2019-03-27T07:59:26.495Z,12.27
2019-03-27T08:08:32.847Z,12.55
2019-03-27T08:11:02.864Z,12.62
2019-03-27T08:13:32.249Z,12.69
2019-03-27T08:16:01.978Z,12.76
2019-03-27T08:18:31.364Z,12.79
2019-03-27T08:21:00.746Z,12.84
2019-03-27T08:23:30.138Z,12.85
2019-03-27T08:25:59.518Z,12.84
2019-03-27T08:28:28.904Z,12.89
2019-03-27T08:30:58.293Z,12.97
2019-03-27T08:33:27.679Z,13.09
2019-03-27T08:35:57.061Z,13.19
2019-03-27T08:38:26.444Z,13.28
2019-03-27T08:40:56.152Z,13.49
2019-03-27T08:43:25.775Z,14.00
2019-03-27T08:45:55.656Z,14.90
2019-03-27T08:48:25.267Z,16.09
2019-03-27T08:50:54.650Z,17.46
2019-03-27T08:53:24.041Z,18.92
2019-03-27T08:55:53.438Z,20.16
2019-03-27T08:58:22.893Z,21.16
2019-03-27T09:00:54.409Z,22.01
2019-03-27T09:03:23.808Z,22.69
2019-03-27T09:05:56.127Z,23.32
2019-03-27T09:08:25.516Z,23.76
2019-03-27T09:10:55.261Z,24.24
2019-03-27T09:13:24.651Z,24.78
2019-03-27T09:15:54.025Z,25.03
2019-03-27T09:18:23.412Z,24.71
2019-03-27T09:20:52.792Z,23.96
2019-03-27T09:23:22.181Z,23.05
2019-03-27T09:25:51.558Z,22.13
2019-03-27T09:28:20.949Z,21.33
2019-03-27T09:30:50.321Z,20.68
2019-03-27T09:33:19.724Z,20.16
2019-03-27T09:35:49.120Z,19.83
2019-03-27T09:38:18.887Z,19.90
2019-03-27T09:40:48.391Z,20.33
2019-03-27T09:43:17.774Z,20.58
2019-03-27T09:46:06.484Z,20.46
2019-03-27T09:48:35.885Z,20.34
2019-03-27T09:51:05.252Z,20.47
2019-03-27T09:53:34.625Z,20.72
2019-03-27T09:56:18.055Z,21.03
2019-03-27T09:58:35.123Z,21.18
2019-03-27T10:01:06.408Z,21.03
2019-03-27T10:03:35.782Z,20.85
2019-03-27T10:06:05.349Z,20.85
2019-03-27T10:08:34.855Z,20.87
2019-03-27T10:11:04.310Z,21.09
2019-03-27T10:13:34.755Z,21.50
2019-03-27T10:16:05.118Z,21.95
2019-03-27T10:18:34.556Z,22.30
2019-03-27T10:21:03.947Z,22.70
2019-03-27T10:23:33.387Z,23.13
2019-03-27T10:26:03.226Z,23.41
2019-03-27T10:30:53.689Z,23.17
2019-03-27T10:33:23.076Z,22.95
2019-03-27T10:35:52.463Z,22.71
2019-03-27T10:38:21.844Z,22.32
2019-03-27T10:40:51.225Z,21.75
2019-03-27T10:43:20.606Z,21.16
2019-03-27T10:45:49.993Z,20.63
2019-03-27T10:48:19.365Z,20.16
2019-03-27T10:50:48.824Z,19.75
2019-03-27T10:53:18.193Z,19.38
2019-03-27T10:55:47.812Z,19.03
2019-03-27T10:58:17.187Z,18.74
2019-03-27T11:00:46.572Z,18.51
2019-03-27T11:03:16.406Z,18.32
2019-03-27T11:05:46.076Z,18.17
2019-03-27T11:08:15.452Z,18.02
2019-03-27T11:10:44.835Z,17.87
2019-03-27T11:13:14.282Z,17.76
2019-03-27T11:15:43.683Z,17.61
2019-03-27T11:18:13.054Z,17.49
2019-03-27T11:20:42.691Z,17.38
2019-03-27T11:23:12.079Z,17.34
2019-03-27T11:25:41.448Z,17.32
2019-03-27T11:28:10.837Z,17.25
2019-03-27T11:30:41.621Z,17.15
2019-03-27T11:33:11.139Z,17.16
2019-03-27T11:35:40.653Z,17.17
2019-03-27T11:38:10.051Z,17.22
2019-03-27T11:40:39.418Z,17.26
2019-03-27T11:43:08.950Z,17.32
2019-03-27T11:45:38.563Z,17.36
2019-03-27T11:48:08.702Z,17.42
2019-03-27T11:50:44.797Z,17.51
2019-03-27T11:53:09.191Z,17.57
2019-03-27T11:55:38.573Z,17.72
2019-03-27T11:58:07.947Z,17.81
2019-03-27T12:00:37.655Z,17.84
2019-03-27T12:03:07.018Z,17.90
2019-03-27T12:05:36.387Z,17.97
2019-03-27T12:08:05.779Z,18.02
2019-03-27T12:10:35.165Z,18.06
2019-03-27T12:13:04.562Z,18.06
2019-03-27T12:15:40.224Z,18.03
2019-03-27T12:18:11.529Z,18.01
2019-03-27T12:20:41.350Z,18.08
2019-03-27T12:23:11.160Z,18.19
2019-03-27T12:25:40.539Z,18.26
2019-03-27T12:28:10.627Z,18.24
2019-03-27T12:30:40.813Z,18.16
2019-03-27T12:33:10.254Z,17.97
2019-03-27T12:35:39.626Z,17.83
2019-03-27T12:38:09.092Z,17.72
2019-03-27T12:40:38.842Z,17.74
2019-03-27T12:43:08.360Z,17.72
2019-03-27T12:45:37.873Z,17.73
2019-03-27T12:48:07.736Z,17.79
2019-03-27T12:50:37.250Z,17.88
2019-03-27T12:53:06.633Z,17.98
2019-03-27T12:55:36.352Z,18.09
2019-03-27T12:58:06.522Z,18.20
2019-03-27T13:00:36.279Z,18.32
2019-03-27T13:03:06.107Z,18.45
2019-03-27T13:05:35.488Z,18.54
2019-03-27T13:08:05.144Z,18.64
2019-03-27T13:10:34.808Z,18.72
2019-03-27T13:13:04.186Z,18.80
2019-03-27T13:15:33.562Z,18.86
2019-03-27T13:18:02.943Z,18.95
2019-03-27T13:20:32.558Z,18.99
2019-03-27T13:23:01.927Z,18.96
2019-03-27T13:25:31.633Z,18.90
2019-03-27T13:28:02.573Z,18.84
2019-03-27T13:30:31.952Z,18.80
2019-03-27T13:33:01.321Z,18.75
2019-03-27T13:35:50.050Z,18.68
2019-03-27T13:38:20.595Z,18.60
2019-03-27T13:40:50.022Z,18.54
2019-03-27T13:43:19.397Z,18.46
2019-03-27T13:45:48.801Z,18.33
2019-03-27T13:48:18.208Z,18.25
2019-03-27T13:50:47.566Z,18.22
2019-03-27T13:53:16.941Z,18.18
2019-03-27T13:55:46.322Z,18.15
2019-03-27T13:58:15.700Z,18.09
2019-03-27T14:00:45.078Z,17.99
2019-03-27T14:03:14.453Z,17.87
2019-03-27T14:05:44.177Z,17.79
2019-03-27T14:08:13.690Z,17.77
2019-03-27T14:10:43.073Z,17.76
2019-03-27T14:13:12.472Z,17.73
2019-03-27T14:15:41.850Z,17.67
2019-03-27T14:18:11.230Z,17.56
2019-03-27T14:20:40.616Z,17.49
2019-03-27T14:23:10.009Z,17.44
2019-03-27T14:25:39.457Z,17.38
2019-03-27T14:28:08.896Z,17.28
2019-03-27T14:30:56.175Z,17.14
2019-03-27T14:33:25.611Z,16.98
2019-03-27T14:35:55.064Z,16.90
2019-03-27T14:38:24.505Z,16.84
2019-03-27T14:40:53.885Z,16.83
2019-03-27T14:43:23.253Z,16.84
2019-03-27T14:45:52.711Z,16.81
2019-03-27T14:48:22.092Z,16.78
2019-03-27T14:50:51.605Z,16.75
2019-03-27T14:53:20.991Z,16.75
2019-03-27T14:55:50.517Z,16.80
2019-03-27T14:58:19.884Z,16.81
2019-03-27T15:00:50.488Z,16.83
2019-03-27T15:03:20.001Z,16.86
2019-03-27T15:05:49.396Z,16.86
2019-03-27T15:08:18.833Z,16.87
2019-03-27T15:10:48.247Z,16.88
2019-03-27T15:13:17.913Z,16.80
2019-03-27T15:15:47.368Z,16.71
2019-03-27T15:18:16.747Z,16.64
2019-03-27T15:20:46.201Z,16.55
2019-03-27T15:23:15.573Z,16.43
2019-03-27T15:25:44.954Z,16.35
2019-03-27T15:28:14.624Z,16.30
2019-03-27T15:30:43.994Z,16.29
2019-03-27T15:33:13.379Z,16.29
2019-03-27T15:35:44.593Z,16.32
2019-03-27T15:38:13.851Z,16.34
2019-03-27T15:40:45.840Z,16.37
2019-03-27T15:43:15.219Z,16.40
2019-03-27T15:45:44.595Z,16.38
2019-03-27T15:48:14.056Z,16.34
2019-03-27T15:50:55.258Z,16.32
2019-03-27T15:53:14.562Z,16.33
2019-03-27T15:55:43.934Z,16.32
2019-03-27T15:58:13.315Z,16.30
2019-03-27T16:00:42.758Z,16.27
2019-03-27T16:03:12.139Z,16.25
2019-03-27T16:05:41.588Z,16.25
2019-03-27T16:08:11.207Z,16.23
2019-03-27T16:10:40.582Z,16.20
2019-03-27T16:13:10.034Z,16.15
2019-03-27T16:15:39.416Z,16.10
2019-03-27T16:18:08.801Z,16.05
2019-03-27T16:20:38.176Z,16.01
2019-03-27T16:23:07.572Z,16.00
2019-03-27T16:25:36.939Z,16.00
2019-03-27T16:28:06.326Z,15.98
2019-03-27T16:30:35.716Z,15.95
2019-03-27T16:33:05.180Z,15.95
2019-03-27T16:35:34.547Z,15.94
2019-03-27T16:38:04.064Z,15.93
2019-03-27T16:40:45.092Z,15.93
2019-03-27T16:43:14.628Z,15.90
2019-03-27T16:45:44.026Z,15.88
2019-03-27T16:48:13.555Z,15.87
2019-03-27T16:50:43.065Z,15.83
2019-03-27T16:53:12.443Z,15.78
2019-03-27T16:55:41.883Z,15.75
2019-03-27T16:58:11.274Z,15.71
2019-03-27T17:00:40.783Z,15.65
2019-03-27T17:03:10.434Z,15.61
2019-03-27T17:05:52.992Z,15.58
2019-03-27T17:08:10.974Z,15.56
2019-03-27T17:10:40.347Z,15.51
2019-03-27T17:13:09.719Z,15.50
2019-03-27T17:15:39.773Z,15.46
2019-03-27T17:18:09.148Z,15.43
2019-03-27T17:20:38.536Z,15.39
2019-03-27T17:23:17.922Z,15.32
2019-03-27T17:25:39.252Z,15.31
2019-03-27T17:28:08.662Z,15.28
2019-03-27T17:30:38.048Z,15.27
2019-03-27T17:33:07.441Z,15.27
2019-03-27T17:35:37.193Z,15.26
2019-03-27T17:38:06.778Z,15.23
2019-03-27T17:40:36.486Z,15.22
2019-03-27T17:43:05.857Z,15.19
2019-03-27T17:45:35.250Z,15.16
2019-03-27T17:48:05.349Z,15.16
2019-03-27T17:50:34.738Z,15.13
2019-03-27T17:53:04.183Z,15.09
2019-03-27T17:55:33.567Z,15.07
2019-03-27T17:58:02.933Z,15.04
2019-03-27T18:00:49.143Z,15.02
2019-03-27T18:03:18.925Z,14.97
2019-03-27T18:05:48.400Z,14.93
2019-03-27T18:08:17.767Z,14.93
2019-03-27T18:11:08.273Z,14.90
2019-03-27T18:13:37.713Z,14.86
2019-03-27T18:16:07.578Z,14.85
2019-03-27T18:18:37.365Z,14.83
2019-03-27T18:21:06.959Z,14.81
2019-03-27T18:23:46.021Z,14.80
2019-03-27T18:26:08.445Z,14.75
2019-03-27T18:28:37.830Z,14.71
2019-03-27T18:31:07.227Z,14.69
2019-03-27T18:33:36.598Z,14.68
2019-03-27T18:36:06.012Z,14.66
2019-03-27T18:38:35.385Z,14.65
2019-03-27T18:41:04.776Z,14.66
2019-03-27T18:43:34.160Z,14.63
2019-03-27T18:46:04.649Z,14.62
2019-03-27T18:48:34.370Z,14.62
2019-03-27T18:51:03.759Z,14.60
2019-03-27T18:53:33.207Z,14.59
2019-03-27T18:56:02.646Z,14.56
2019-03-27T18:58:32.028Z,14.55
2019-03-27T19:01:01.395Z,14.54
2019-03-27T19:03:30.783Z,14.53
2019-03-27T19:06:00.174Z,14.51
2019-03-27T19:08:29.849Z,14.50
2019-03-27T19:10:59.230Z,14.50
2019-03-27T19:13:28.617Z,14.49
2019-03-27T19:15:57.995Z,14.46
2019-03-27T19:18:27.489Z,14.45
2019-03-27T19:20:56.864Z,14.45
2019-03-27T19:23:26.251Z,14.45
2019-03-27T19:25:55.621Z,14.44
2019-03-27T19:28:25.018Z,14.43
2019-03-27T19:30:54.472Z,14.44
2019-03-27T19:33:23.859Z,14.42
2019-03-27T19:35:53.241Z,14.38
2019-03-27T19:38:22.630Z,14.39
2019-03-27T19:40:52.001Z,14.35
2019-03-27T19:43:21.400Z,14.35
2019-03-27T19:45:50.773Z,14.34
2019-03-27T19:48:20.171Z,14.33
2019-03-27T19:50:49.539Z,14.31
2019-03-27T19:53:18.928Z,14.30
2019-03-27T19:55:48.385Z,14.29
2019-03-27T19:58:18.506Z,14.28
2019-03-27T20:00:47.947Z,14.28
2019-03-27T20:03:17.407Z,14.31
2019-03-27T20:05:47.123Z,14.32
2019-03-27T20:08:16.762Z,14.32
2019-03-27T20:10:46.129Z,14.33
2019-03-27T20:13:15.525Z,14.35
2019-03-27T20:15:44.896Z,14.37
2019-03-27T20:18:14.647Z,14.38
2019-03-27T20:20:44.023Z,14.38
2019-03-27T20:23:15.340Z,14.36
2019-03-27T20:25:45.014Z,14.35
2019-03-27T20:28:14.403Z,14.35
2019-03-27T20:30:43.778Z,14.35
2019-03-27T20:33:13.164Z,14.35
2019-03-27T20:35:42.539Z,14.36
2019-03-27T20:38:11.944Z,14.35
2019-03-27T20:41:00.964Z,14.33
2019-03-27T20:43:30.356Z,14.30
2019-03-27T20:45:59.727Z,14.31
2019-03-27T20:48:29.124Z,14.33
2019-03-27T20:50:58.508Z,14.30
2019-03-27T20:53:27.906Z,14.30
2019-03-27T20:55:57.284Z,14.30
2019-03-27T20:58:26.666Z,14.30
2019-03-27T21:00:56.280Z,14.28
2019-03-27T21:03:25.652Z,14.26
2019-03-27T21:05:55.048Z,14.23
2019-03-27T21:08:24.435Z,14.21
2019-03-27T21:10:53.837Z,14.19
2019-03-27T21:13:23.294Z,14.17
2019-03-27T21:15:52.918Z,14.15
2019-03-27T21:18:22.300Z,14.15
2019-03-27T21:20:51.689Z,14.12
2019-03-27T21:23:21.066Z,14.10
2019-03-27T21:25:50.887Z,14.08
2019-03-27T21:28:20.267Z,14.07
2019-03-27T21:30:49.651Z,14.04
2019-03-27T21:33:19.025Z,14.03
2019-03-27T21:35:48.417Z,14.00
2019-03-27T21:38:17.791Z,13.99
2019-03-27T21:40:47.186Z,13.95
2019-03-27T21:43:16.847Z,13.93
2019-03-27T21:45:46.231Z,13.93
2019-03-27T21:48:15.603Z,13.91
2019-03-27T21:50:45.009Z,13.89
2019-03-27T21:53:14.382Z,13.88
2019-03-27T21:55:43.779Z,13.85
2019-03-27T21:58:13.159Z,13.81
2019-03-27T22:00:42.555Z,13.79
2019-03-27T22:03:11.937Z,13.77
2019-03-27T22:05:41.324Z,13.75
2019-03-27T22:08:30.048Z,13.72
2019-03-27T22:10:59.434Z,13.66
2019-03-27T22:13:29.179Z,13.66
2019-03-27T22:16:00.408Z,13.67
2019-03-27T22:18:29.855Z,13.65
2019-03-27T22:20:59.310Z,13.65
2019-03-27T22:23:28.693Z,13.60
2019-03-27T22:25:58.111Z,13.59
2019-03-27T22:28:27.724Z,13.62
2019-03-27T22:30:57.115Z,13.61
2019-03-27T22:33:26.494Z,13.64
2019-03-27T22:35:56.175Z,13.66
2019-03-27T22:38:25.799Z,13.68
2019-03-27T22:40:55.189Z,13.71
2019-03-27T22:43:24.611Z,13.71
2019-03-27T22:45:53.979Z,13.74
2019-03-27T22:48:23.356Z,13.72
2019-03-27T22:50:52.736Z,13.70
2019-03-27T22:53:22.117Z,13.67
2019-03-27T22:55:51.493Z,13.63
2019-03-27T22:58:20.879Z,13.59
2019-03-27T23:00:53.254Z,13.57
2019-03-27T23:03:22.974Z,13.55
2019-03-27T23:05:52.360Z,13.53
2019-03-27T23:08:22.086Z,13.50
2019-03-27T23:10:51.525Z,13.51
2019-03-27T23:13:20.927Z,13.52
2019-03-27T23:15:50.304Z,13.48
2019-03-27T23:18:19.750Z,13.46
2019-03-27T23:20:49.072Z,13.43
2019-03-27T23:23:18.463Z,13.38
2019-03-27T23:25:47.915Z,13.37
2019-03-27T23:28:17.295Z,13.36
2019-03-27T23:30:46.677Z,13.35
2019-03-27T23:33:16.066Z,13.34
2019-03-27T23:35:45.677Z,13.35
2019-03-27T23:38:15.061Z,13.37
2019-03-27T23:40:44.439Z,13.39
2019-03-27T23:43:13.830Z,13.42
2019-03-27T23:45:43.461Z,13.42
2019-03-27T23:48:12.987Z,13.43
2019-03-27T23:50:42.359Z,13.41
2019-03-27T23:53:11.766Z,13.39
2019-03-27T23:55:41.174Z,13.40
2019-03-27T23:58:10.576Z,13.41
